Spring's Hourly Summary for Friday, March 17, 2017
Hour Temp
(f)
RH
(%)
Solar Rad.
(MJ/m2)
Rainfall
(in)
Wind
(mph)
3/17/2017 12:00 AM 68 84 0 0 7.02
3/17/2017 1:00 AM 67 86 0 0 6.11
3/17/2017 2:00 AM 66 88 0 0 6.17
3/17/2017 3:00 AM 66 88 0 0 6.15
3/17/2017 4:00 AM 65 90 0 0 5.1
3/17/2017 5:00 AM 65 92 0 0 4.36
3/17/2017 6:00 AM 65 90 0 0 3.48
3/17/2017 7:00 AM 65 89 0 0 3.67
3/17/2017 8:00 AM 65 90 0.03 0 3.42
3/17/2017 9:00 AM 65 87 0.28 0 3.75
3/17/2017 10:00 AM 69 76 1.15 0 7.08
3/17/2017 11:00 AM 71 68 1.34 0 9.02
3/17/2017 12:00 PM 73 62 1.24 0 7.95
3/17/2017 1:00 PM 75 56 2.54 0 9.58
3/17/2017 2:00 PM 77 54 2.51 0 9.05
3/17/2017 3:00 PM 77 55 1.98 0 9.46
3/17/2017 4:00 PM 78 51 2.54 0 9.94
3/17/2017 5:00 PM 78 53 1.48 0 9.39
3/17/2017 6:00 PM 77 57 1.17 0 9.92
3/17/2017 7:00 PM 74 61 0.41 0 9.49
3/17/2017 8:00 PM 72 66 0.04 0 7.52
3/17/2017 9:00 PM 70 70 0 0 7.5
3/17/2017 10:00 PM 69 76 0 0 5.62
3/17/2017 11:00 PM 68 79 0 0 4.65
Data Summary 70 73 16.71 0.00 6.89